Time;durP1;ratioP1;P1;durP2;ratioP2;P2;SDS_P1;SDS_P2;PMS_P1;PMS_P2;Temp;Humidity;BMP_temperature;BMP_pressure;BME280_temperature;BME280_humidity;BME280_pressure;Samples;Min_cycle;Max_cycle;Signal;HPM_P1;HPM_P2
2022/06/07 00:01:00;;;;;;;3.83;1.57;;;;;;;15.28;100.00;98894.81;5011458;28;20198;-79
2022/06/07 00:03:29;;;;;;;1.83;1.30;;;;;;;15.27;100.00;98895.81;5016149;28;20653;-79
2022/06/07 00:05:57;;;;;;;2.40;1.30;;;;;;;15.24;100.00;98896.03;5004373;28;20203;-78
2022/06/07 00:08:28;;;;;;;3.97;1.70;;;;;;;15.29;100.00;98901.84;5011033;28;20202;-79
2022/06/07 00:10:56;;;;;;;3.20;1.70;;;;;;;15.17;100.00;98891.25;5006341;28;20194;-79
2022/06/07 00:13:24;;;;;;;2.30;1.60;;;;;;;15.07;100.00;98894.88;5010963;28;20229;-78
2022/06/07 00:15:53;;;;;;;4.23;1.60;;;;;;;14.97;100.00;98894.81;5011323;28;20198;-79
2022/06/07 00:18:21;;;;;;;2.73;1.60;;;;;;;14.86;100.00;98881.53;5017041;28;20209;-78
2022/06/07 00:20:51;;;;;;;2.07;1.83;;;;;;;15.06;100.00;98886.03;5012417;28;20217;-79
2022/06/07 00:23:21;;;;;;;2.67;1.63;;;;;;;14.96;100.00;98892.25;5011391;28;20258;-79
2022/06/07 00:25:54;;;;;;;5.20;1.70;;;;;;;14.92;100.00;98897.03;5009993;28;20672;-78
2022/06/07 00:28:23;;;;;;;2.33;1.77;;;;;;;14.79;100.00;98888.41;5010478;28;20213;-79
2022/06/07 00:30:53;;;;;;;3.20;1.63;;;;;;;14.92;100.00;98893.50;5013175;28;20237;-78
2022/06/07 00:33:24;;;;;;;1.80;1.60;;;;;;;14.95;100.00;98891.41;5011417;28;20221;-78
2022/06/07 00:35:53;;;;;;;4.27;2.07;;;;;;;14.83;100.00;98888.00;5010967;28;20198;-79
2022/06/07 00:38:21;;;;;;;1.90;1.70;;;;;;;14.74;100.00;98890.59;5012480;28;20232;-78
2022/06/07 00:40:51;;;;;;;2.10;1.57;;;;;;;14.64;100.00;98885.22;5006729;28;20206;-79
2022/06/07 00:43:23;;;;;;;3.53;1.87;;;;;;;14.49;100.00;98887.38;5012986;28;20202;-79
2022/06/07 00:45:51;;;;;;;4.73;2.00;;;;;;;14.46;100.00;98884.94;5014649;28;20199;-78
2022/06/07 00:48:20;;;;;;;3.83;1.80;;;;;;;14.55;100.00;98885.97;5004504;28;20252;-79
2022/06/07 00:50:54;;;;;;;3.40;2.00;;;;;;;14.55;100.00;98883.31;5010491;28;20240;-79
2022/06/07 00:53:25;;;;;;;3.10;1.87;;;;;;;14.68;100.00;98883.16;5006497;28;20676;-79
2022/06/07 00:55:55;;;;;;;3.27;2.23;;;;;;;14.71;100.00;98886.38;5012705;28;20202;-78
2022/06/07 00:58:25;;;;;;;3.87;1.80;;;;;;;14.72;100.00;98880.06;5011116;28;20199;-79
2022/06/07 01:00:55;;;;;;;4.40;2.00;;;;;;;14.47;100.00;98883.97;5010341;28;20198;-79
2022/06/07 01:03:23;;;;;;;3.43;2.30;;;;;;;14.37;100.00;98895.50;5009283;28;20224;-79
2022/06/07 01:05:53;;;;;;;3.70;2.13;;;;;;;14.38;100.00;98895.41;5010347;28;20197;-79
2022/06/07 01:11:10;;;;;;;3.57;1.80;;;;;;;14.56;100.00;98901.00;5009360;28;20191;-79
2022/06/07 01:13:39;;;;;;;3.00;1.83;;;;;;;14.65;100.00;98894.03;5010419;28;20226;-79
2022/06/07 01:16:09;;;;;;;2.53;2.10;;;;;;;14.53;100.00;98888.78;5018797;28;20241;-78
2022/06/07 01:18:38;;;;;;;2.93;1.70;;;;;;;14.72;100.00;98892.56;5010552;28;20236;-78
2022/06/07 01:21:19;;;;;;;4.60;1.80;;;;;;;14.69;100.00;98890.16;5011331;28;20202;-79
2022/06/07 01:23:49;;;;;;;2.93;1.93;;;;;;;14.69;100.00;98898.16;5014123;28;20677;-78
2022/06/07 01:26:17;;;;;;;3.47;1.70;;;;;;;14.75;100.00;98894.94;5008925;28;20209;-77
2022/06/07 01:28:45;;;;;;;2.00;1.70;;;;;;;14.72;100.00;98893.41;5010158;28;20187;-79
2022/06/07 01:31:14;;;;;;;5.97;1.80;;;;;;;14.72;100.00;98896.06;5008900;28;20272;-79
2022/06/07 01:33:42;;;;;;;1.70;1.33;;;;;;;14.70;100.00;98895.34;5008120;28;20309;-79
2022/06/07 01:36:13;;;;;;;2.03;1.40;;;;;;;14.74;100.00;98895.94;5008540;28;20209;-78
2022/06/07 01:38:45;;;;;;;2.60;1.90;;;;;;;14.75;100.00;98893.13;5013601;28;20239;-79
2022/06/07 01:44:00;;;;;;;4.53;1.87;;;;;;;14.40;100.00;98904.09;5013749;28;20194;-79
2022/06/07 01:46:28;;;;;;;2.87;1.80;;;;;;;14.30;100.00;98890.69;5019710;28;20661;-79
2022/06/07 01:48:57;;;;;;;2.43;1.67;;;;;;;14.35;100.00;98894.78;5013559;28;20199;-78
2022/06/07 01:51:25;;;;;;;2.43;1.70;;;;;;;14.18;100.00;98893.53;5008640;28;20191;-79
2022/06/07 01:53:54;;;;;;;3.27;1.90;;;;;;;14.13;100.00;98893.91;5017786;28;20229;-79
2022/06/07 01:56:23;;;;;;;2.40;1.63;;;;;;;14.09;100.00;98900.47;5011953;28;20270;-79
2022/06/07 01:58:51;;;;;;;2.97;1.80;;;;;;;14.09;100.00;98903.16;4977248;28;20645;-79
2022/06/07 02:01:21;;;;;;;2.10;1.57;;;;;;;14.00;100.00;98898.56;5014735;28;20218;-78
2022/06/07 02:03:49;;;;;;;2.47;1.90;;;;;;;13.90;100.00;98898.47;5012666;28;20202;-79
2022/06/07 02:06:18;;;;;;;3.60;1.80;;;;;;;13.96;100.00;98894.44;5011946;28;20191;-79
2022/06/07 02:08:46;;;;;;;3.03;1.67;;;;;;;13.83;100.00;98896.44;5017152;28;20198;-79
2022/06/07 02:11:19;;;;;;;1.67;1.57;;;;;;;13.84;100.00;98898.97;5010326;28;20210;-79
2022/06/07 02:13:49;;;;;;;3.63;1.70;;;;;;;13.97;100.00;98886.34;5017911;28;20720;-79
2022/06/07 02:16:18;;;;;;;2.60;1.90;;;;;;;13.98;100.00;98890.69;5012545;28;20209;-79
2022/06/07 02:18:47;;;;;;;1.97;1.80;;;;;;;13.98;100.00;98885.34;5010884;28;20206;-79
2022/06/07 02:21:17;;;;;;;3.87;1.80;;;;;;;14.23;100.00;98886.00;5009150;28;20260;-79
2022/06/07 02:23:45;;;;;;;3.93;1.67;;;;;;;14.12;100.00;98884.25;5012807;28;20199;-79
2022/06/07 02:26:21;;;;;;;2.70;1.80;;;;;;;14.09;100.00;98880.97;5011802;28;20382;-79
2022/06/07 02:28:53;;;;;;;1.90;1.80;;;;;;;13.90;100.00;98884.31;5013063;28;20664;-79
2022/06/07 02:31:23;;;;;;;2.43;1.70;;;;;;;13.87;100.00;98889.88;5012759;28;20234;-79
2022/06/07 02:33:53;;;;;;;3.27;1.97;;;;;;;13.87;100.00;98880.06;5012809;28;20215;-79
2022/06/07 02:36:21;;;;;;;4.43;1.67;;;;;;;13.94;100.00;98883.09;5011381;28;20197;-79
2022/06/07 02:38:50;;;;;;;3.07;1.67;;;;;;;14.01;100.00;98885.13;5012473;28;20338;-79
2022/06/07 02:41:24;;;;;;;1.83;1.60;;;;;;;14.05;100.00;98891.03;5010235;28;20198;-79
2022/06/07 02:43:52;;;;;;;4.93;1.67;;;;;;;14.02;100.00;98891.28;5009208;28;20195;-79
2022/06/07 02:46:21;;;;;;;3.60;1.80;;;;;;;14.06;100.00;98879.41;5015430;28;20214;-79
2022/06/07 02:48:50;;;;;;;2.20;1.43;;;;;;;13.85;100.00;98890.00;5014549;28;20195;-79
2022/06/07 02:51:18;;;;;;;2.13;1.90;;;;;;;13.80;100.00;98880.69;5011193;28;20672;-79
2022/06/07 02:53:46;;;;;;;4.70;1.80;;;;;;;13.94;100.00;98883.94;5011050;28;20222;-79
2022/06/07 02:56:15;;;;;;;3.30;1.70;;;;;;;14.07;100.00;98877.59;5009744;28;20191;-79
2022/06/07 02:58:46;;;;;;;2.27;1.77;;;;;;;13.96;100.00;98884.66;5012259;28;20194;-79
2022/06/07 03:01:14;;;;;;;1.67;1.57;;;;;;;13.92;100.00;98877.06;5008641;28;20249;-79
2022/06/07 03:03:42;;;;;;;2.23;1.73;;;;;;;14.11;100.00;98884.38;5012321;28;20235;-78
2022/06/07 03:06:11;;;;;;;2.10;1.63;;;;;;;14.09;100.00;98880.97;5010578;28;20222;-79
2022/06/07 03:08:39;;;;;;;4.13;1.80;;;;;;;14.01;100.00;98877.13;5012919;28;20206;-79
2022/06/07 03:11:07;;;;;;;3.20;1.73;;;;;;;14.02;100.00;98881.50;5011361;28;20205;-79
2022/06/07 03:13:36;;;;;;;2.20;1.70;;;;;;;14.07;100.00;98883.75;5011967;28;20194;-79
2022/06/07 03:16:06;;;;;;;2.83;1.90;;;;;;;14.12;100.00;98880.72;5012298;28;20204;-79
2022/06/07 03:18:38;;;;;;;2.33;1.60;;;;;;;14.13;100.00;98875.28;5015046;28;20190;-79
2022/06/07 03:21:06;;;;;;;4.27;1.80;;;;;;;13.99;100.00;98873.75;5010807;28;20191;-80
2022/06/07 03:23:35;;;;;;;5.83;1.80;;;;;;;13.93;100.00;98876.06;5014404;28;20209;-79
2022/06/07 03:26:05;;;;;;;2.27;1.90;;;;;;;14.00;100.00;98874.59;5008516;28;20362;-79
2022/06/07 03:28:33;;;;;;;3.77;1.87;;;;;;;14.06;100.00;98881.22;4976844;28;20644;-79
2022/06/07 03:31:09;;;;;;;2.30;1.43;;;;;;;14.06;100.00;98882.06;5011761;28;20227;-79
2022/06/07 03:33:38;;;;;;;3.23;2.17;;;;;;;14.10;100.00;98877.34;5012079;28;20209;-79
2022/06/07 03:36:10;;;;;;;3.20;1.80;;;;;;;14.22;100.00;98877.16;5009963;28;20206;-79
2022/06/07 03:38:39;;;;;;;4.23;2.10;;;;;;;13.92;100.00;98885.88;5012260;28;20194;-79
2022/06/07 03:41:08;;;;;;;5.50;2.10;;;;;;;14.06;100.00;98889.22;5009304;28;20198;-79
2022/06/07 03:43:37;;;;;;;3.00;1.73;;;;;;;14.03;100.00;98887.66;5011683;28;20195;-79
2022/06/07 03:46:12;;;;;;;2.27;1.87;;;;;;;14.12;100.00;98880.72;5011450;28;20194;-79
2022/06/07 03:48:41;;;;;;;3.17;1.93;;;;;;;14.03;100.00;98879.66;5015942;28;20190;-79
2022/06/07 03:51:10;;;;;;;2.00;1.80;;;;;;;14.15;100.00;98877.81;5011817;28;20206;-79
2022/06/07 03:53:38;;;;;;;2.03;1.83;;;;;;;14.27;100.00;98882.94;5011961;28;20231;-79
2022/06/07 03:56:09;;;;;;;1.90;1.70;;;;;;;14.14;100.00;98882.28;5010275;28;20303;-78
2022/06/07 03:58:38;;;;;;;4.40;1.60;;;;;;;14.16;100.00;98880.34;5012206;28;20217;-79
2022/06/07 04:01:08;;;;;;;2.23;1.70;;;;;;;14.02;100.00;98878.81;5017156;28;20205;-79
2022/06/07 04:03:44;;;;;;;2.50;1.57;;;;;;;14.22;100.00;98874.50;5011242;28;20203;-79
2022/06/07 04:06:22;;;;;;;3.20;1.73;;;;;;;14.21;100.00;98885.28;5011330;28;20198;-79
2022/06/07 04:08:51;;;;;;;4.40;1.90;;;;;;;14.18;100.00;98886.38;5011343;28;20205;-79
2022/06/07 04:11:21;;;;;;;2.77;1.83;;;;;;;14.20;100.00;98880.94;5010019;28;20254;-79
2022/06/07 04:13:50;;;;;;;4.53;1.80;;;;;;;14.30;100.00;98882.72;5010901;28;20186;-79
2022/06/07 04:16:22;;;;;;;3.87;1.73;;;;;;;14.39;100.00;98883.75;5010325;28;20228;-79
2022/06/07 04:18:52;;;;;;;1.93;1.70;;;;;;;14.41;100.00;98887.13;5011124;28;20289;-78
2022/06/07 04:21:21;;;;;;;3.37;1.83;;;;;;;14.28;100.00;98887.31;5012525;28;20250;-78
2022/06/07 04:23:49;;;;;;;3.33;1.80;;;;;;;14.40;100.00;98882.78;5012292;28;20199;-79
2022/06/07 04:26:21;;;;;;;4.23;1.60;;;;;;;14.52;100.00;98881.78;5012753;28;20206;-80
2022/06/07 04:28:49;;;;;;;3.17;1.70;;;;;;;14.37;100.00;98888.34;5011868;28;20226;-79
2022/06/07 04:31:22;;;;;;;2.60;1.60;;;;;;;14.50;100.00;98889.06;5011144;28;20254;-78
2022/06/07 04:33:56;;;;;;;1.60;1.50;;;;;;;14.52;100.00;98886.25;5013289;28;20273;-79
2022/06/07 04:36:27;;;;;;;3.17;1.60;;;;;;;14.58;100.00;98888.41;5009435;28;20218;-79
2022/06/07 04:38:57;;;;;;;2.63;1.80;;;;;;;14.66;100.00;98885.06;5011041;28;20222;-79
2022/06/07 04:41:27;;;;;;;1.87;1.53;;;;;;;14.65;100.00;98884.22;5012967;28;20210;-79
2022/06/07 04:43:57;;;;;;;2.13;1.60;;;;;;;14.61;100.00;98880.16;5014386;28;20205;-79
2022/06/07 04:46:28;;;;;;;4.10;2.00;;;;;;;14.61;100.00;98885.47;5010727;28;20212;-79
2022/06/07 04:48:58;;;;;;;4.40;2.00;;;;;;;14.70;100.00;98887.38;5010803;28;20205;-79
2022/06/07 04:51:28;;;;;;;4.73;2.10;;;;;;;14.58;100.00;98891.91;5011317;28;20210;-79
2022/06/07 04:53:58;;;;;;;2.80;1.80;;;;;;;14.66;100.00;98890.41;5010764;28;20194;-78
2022/06/07 04:56:29;;;;;;;2.67;1.70;;;;;;;14.83;100.00;98903.16;5009790;28;20221;-79
2022/06/07 04:58:58;;;;;;;2.47;1.80;;;;;;;14.83;100.00;98897.81;5010851;28;20186;-79
2022/06/07 05:01:29;;;;;;;4.00;1.67;;;;;;;14.74;100.00;98896.78;5010873;28;20645;-79
2022/06/07 05:03:59;;;;;;;3.50;2.00;;;;;;;14.82;100.00;98898.78;5017482;28;20242;-79
2022/06/07 05:06:30;;;;;;;2.30;1.70;;;;;;;15.02;100.00;98899.75;5011139;28;20650;-79
2022/06/07 05:09:02;;;;;;;2.70;1.67;;;;;;;15.12;100.00;98906.81;5008217;28;20209;-79
2022/06/07 05:11:31;;;;;;;3.73;1.70;;;;;;;15.21;100.00;98897.16;5011684;28;20198;-79
2022/06/07 05:14:02;;;;;;;2.33;1.70;;;;;;;15.17;100.00;98904.59;5012733;28;20243;-79
2022/06/07 05:16:32;;;;;;;2.27;1.40;;;;;;;15.27;100.00;98909.13;5013910;28;20218;-79
2022/06/07 05:19:10;;;;;;;2.80;1.60;;;;;;;15.34;100.00;98904.94;5013374;28;20201;-79
2022/06/07 05:21:40;;;;;;;2.63;1.37;;;;;;;15.25;100.00;98909.28;5012769;28;20194;-79
2022/06/07 05:24:09;;;;;;;2.47;1.80;;;;;;;14.80;100.00;98904.25;5013818;28;20197;-79
2022/06/07 05:26:41;;;;;;;1.70;1.30;;;;;;;14.92;100.00;98912.19;5012503;28;20281;-78
2022/06/07 05:29:16;;;;;;;2.03;1.37;;;;;;;15.06;100.00;98910.03;5017573;28;20202;-80
2022/06/07 05:31:44;;;;;;;6.90;1.70;;;;;;;15.05;100.00;98912.81;5011604;28;20229;-81
2022/06/07 05:34:14;;;;;;;3.57;1.60;;;;;;;15.14;100.00;98906.69;5013761;28;20199;-79
2022/06/07 05:36:43;;;;;;;3.60;1.70;;;;;;;15.22;100.00;98911.34;5013148;28;20218;-79
2022/06/07 05:39:20;;;;;;;3.50;1.70;;;;;;;15.26;100.00;98907.47;5013797;28;20449;-79
2022/06/07 05:41:49;;;;;;;1.77;1.60;;;;;;;15.29;100.00;98924.03;5009740;28;20217;-79
2022/06/07 05:44:17;;;;;;;2.13;1.57;;;;;;;15.16;100.00;98912.75;5013493;28;20203;-79
2022/06/07 05:46:46;;;;;;;4.80;1.70;;;;;;;15.30;100.00;98915.03;5013215;28;20198;-80
2022/06/07 05:49:17;;;;;;;1.77;1.63;;;;;;;15.53;100.00;98918.34;5013458;28;20668;-79
2022/06/07 05:51:46;;;;;;;2.50;1.47;;;;;;;15.65;100.00;98921.81;5013439;28;20190;-79
2022/06/07 05:54:15;;;;;;;2.63;1.67;;;;;;;15.76;100.00;98913.69;5013028;28;20209;-79
2022/06/07 05:56:43;;;;;;;2.03;1.60;;;;;;;15.76;100.00;98913.69;5011087;28;20220;-79
2022/06/07 05:59:11;;;;;;;2.03;1.70;;;;;;;15.69;100.00;98912.53;5013459;28;20197;-79
2022/06/07 06:01:40;;;;;;;1.90;1.70;;;;;;;15.73;100.00;98913.97;5010565;28;20209;-79
2022/06/07 06:04:10;;;;;;;2.90;1.63;;;;;;;15.80;100.00;98915.09;5009723;28;20191;-79
2022/06/07 06:06:40;;;;;;;3.00;1.80;;;;;;;15.79;100.00;98908.06;5013293;28;20201;-79
2022/06/07 06:11:54;;;;;;;3.90;1.70;;;;;;;16.22;100.00;98912.22;5013550;28;20205;-79
2022/06/07 06:14:23;;;;;;;2.83;1.60;;;;;;;16.30;100.00;98899.81;5014816;28;20206;-79
2022/06/07 06:16:52;;;;;;;4.40;1.40;;;;;;;16.02;100.00;98914.88;5012754;28;20231;-79
2022/06/07 06:19:21;;;;;;;2.17;1.67;;;;;;;16.16;100.00;98908.25;5011801;28;20229;-79
2022/06/07 06:21:50;;;;;;;2.77;1.50;;;;;;;16.26;100.00;98910.94;5013063;28;20206;-79
2022/06/07 06:24:23;;;;;;;2.10;1.40;;;;;;;16.22;100.00;98912.22;5010362;28;20205;-79
2022/06/07 06:26:54;;;;;;;2.57;1.43;;;;;;;16.49;100.00;98911.50;5012985;28;20191;-79
2022/06/07 06:29:25;;;;;;;4.30;1.40;;;;;;;16.43;100.00;98910.25;5012869;28;20199;-79
2022/06/07 06:31:54;;;;;;;3.57;1.30;;;;;;;16.75;100.00;98912.63;5012767;28;20230;-79
2022/06/07 06:34:23;;;;;;;1.93;1.50;;;;;;;16.90;100.00;98910.38;5010141;28;20206;-79
2022/06/07 06:36:53;;;;;;;3.43;1.30;;;;;;;16.93;100.00;98894.00;5012434;28;20644;-79
2022/06/07 06:39:23;;;;;;;3.03;1.20;;;;;;;17.07;100.00;98895.38;5015130;28;20269;-79
2022/06/07 06:41:52;;;;;;;1.37;1.20;;;;;;;17.03;100.00;98900.19;5011448;28;20275;-79
2022/06/07 06:44:20;;;;;;;2.10;1.20;;;;;;;17.22;100.00;98891.25;5009819;28;20203;-79
2022/06/07 06:46:49;;;;;;;2.60;1.63;;;;;;;17.42;100.00;98892.84;5012614;28;20198;-80
2022/06/07 06:49:18;;;;;;;3.73;1.43;;;;;;;17.70;100.00;98896.41;5013652;28;20203;-78
2022/06/07 06:51:48;;;;;;;2.37;1.27;;;;;;;17.65;100.00;98893.28;5012123;28;20194;-79
2022/06/07 06:54:18;;;;;;;2.37;1.50;;;;;;;17.70;100.00;98891.03;5012606;28;20672;-79
2022/06/07 06:56:47;;;;;;;5.97;1.30;;;;;;;17.53;100.00;98894.47;5014488;28;20230;-79
2022/06/07 06:59:16;;;;;;;3.60;1.33;;;;;;;17.54;100.00;98895.31;5015185;28;20210;-79
2022/06/07 07:01:44;;;;;;;1.87;1.40;;;;;;;17.21;100.00;98904.78;5011030;28;20201;-79
2022/06/07 07:04:16;;;;;;;1.40;1.30;;;;;;;17.46;100.00;98899.56;5013895;28;20194;-79
2022/06/07 07:06:45;;;;;;;3.47;1.60;;;;;;;17.42;100.00;98908.91;5015524;28;20200;-79
2022/06/07 07:09:15;;;;;;;2.17;1.63;;;;;;;17.59;100.00;98907.28;5016374;28;20210;-79
2022/06/07 07:11:47;;;;;;;2.63;1.70;;;;;;;17.77;100.00;98907.38;5009945;28;20199;-79
2022/06/07 07:14:16;;;;;;;2.43;1.70;;;;;;;17.92;100.00;98902.31;5016859;28;20210;-79
2022/06/07 07:16:47;;;;;;;2.60;1.30;;;;;;;17.92;100.00;98895.13;5007665;28;20305;-80
2022/06/07 07:19:15;;;;;;;3.03;1.20;;;;;;;18.03;100.00;98896.75;5011958;28;20191;-79
2022/06/07 07:21:46;;;;;;;3.10;1.30;;;;;;;17.84;100.00;98892.34;5011831;28;20202;-79
2022/06/07 07:24:18;;;;;;;3.53;1.30;;;;;;;18.01;100.00;98904.09;5011878;28;20191;-79
2022/06/07 07:26:50;;;;;;;2.00;1.20;;;;;;;18.39;100.00;98894.91;5010964;28;20198;-79
2022/06/07 07:29:19;;;;;;;3.97;1.30;;;;;;;18.70;100.00;98890.00;5011586;28;20664;-79
2022/06/07 07:31:48;;;;;;;1.50;1.40;;;;;;;18.92;100.00;98890.50;5011370;28;20230;-79
2022/06/07 07:34:18;;;;;;;2.07;1.30;;;;;;;18.71;100.00;98889.00;5014447;28;20213;-80
2022/06/07 07:36:49;;;;;;;1.93;1.30;;;;;;;18.26;100.00;98889.09;5011052;28;20222;-79
2022/06/07 07:39:22;;;;;;;2.83;1.23;;;;;;;18.71;100.00;98880.09;5071737;28;20263;-79
2022/06/07 07:41:55;;;;;;;2.70;1.30;;;;;;;18.89;100.00;98878.22;5070784;28;20297;-79
2022/06/07 07:44:27;;;;;;;1.67;1.30;;;;;;;18.97;100.00;98875.59;5072141;28;20203;-80
2022/06/07 07:46:55;;;;;;;4.33;1.50;;;;;;;19.04;100.00;98879.34;5070065;28;20196;-80
2022/06/07 07:49:24;;;;;;;1.10;1.00;;;;;;;19.31;100.00;98886.38;5069658;28;20195;-79
2022/06/07 07:51:55;;;;;;;4.57;1.27;;;;;;;19.16;100.00;98877.22;5072021;28;20216;-80
2022/06/07 07:54:25;;;;;;;3.43;1.37;;;;;;;19.36;100.00;98875.97;5068787;28;20283;-79
2022/06/07 07:56:55;;;;;;;2.80;1.20;;;;;;;19.31;100.00;98872.94;5058076;28;20230;-79
2022/06/07 07:59:24;;;;;;;2.77;1.23;;;;;;;18.75;100.00;98879.66;5015115;28;20278;-79
2022/06/07 08:01:53;;;;;;;4.00;1.50;;;;;;;18.45;100.00;98886.25;5012195;28;20195;-79
2022/06/07 08:04:21;;;;;;;2.60;1.30;;;;;;;18.70;100.00;98875.75;5011415;28;20209;-79
2022/06/07 08:06:49;;;;;;;3.70;1.20;;;;;;;18.86;100.00;98878.53;5017432;28;20254;-79
2022/06/07 08:09:19;;;;;;;1.73;1.10;;;;;;;18.76;100.00;98869.75;5015160;28;20646;-78
2022/06/07 08:11:47;;;;;;;1.83;1.00;;;;;;;18.99;100.00;98868.22;5006150;28;20199;-79
2022/06/07 08:14:19;;;;;;;3.03;1.30;;;;;;;18.77;100.00;98871.44;5009007;28;20668;-79
2022/06/07 08:16:49;;;;;;;3.10;1.23;;;;;;;19.07;100.00;98873.63;5011034;28;20222;-79
2022/06/07 08:19:18;;;;;;;2.53;1.00;;;;;;;19.21;100.00;98871.38;5013215;28;20209;-79
2022/06/07 08:21:47;;;;;;;1.37;1.00;;;;;;;19.49;100.00;98871.97;5014818;28;20187;-79
2022/06/07 08:24:16;;;;;;;3.50;0.73;;;;;;;19.41;100.00;98865.59;5004511;28;20198;-79
2022/06/07 08:26:48;;;;;;;1.10;0.60;;;;;;;19.31;100.00;98878.31;5012903;28;20194;-79
2022/06/07 08:29:19;;;;;;;2.43;0.70;;;;;;;19.47;100.00;98861.41;5010360;28;20210;-78
2022/06/07 08:31:48;;;;;;;1.23;0.60;;;;;;;19.36;98.49;98859.84;5014140;28;20242;-78
2022/06/07 08:39:49;;;;;;;1.53;0.73;;;;;;;20.16;96.28;98846.81;5010548;28;20225;-79
2022/06/07 08:42:32;;;;;;;2.37;0.73;;;;;;;20.29;92.81;98849.88;5009462;28;20233;-79
2022/06/07 08:45:06;;;;;;;2.60;0.90;;;;;;;20.60;91.17;98848.38;5011429;28;20258;-80
2022/06/07 08:47:41;;;;;;;0.93;0.70;;;;;;;20.15;92.21;98847.81;5010282;28;20194;-79
2022/06/07 08:50:17;;;;;;;0.77;0.70;;;;;;;19.71;92.80;98847.25;5011531;28;20209;-80
2022/06/07 08:52:47;;;;;;;1.43;0.70;;;;;;;20.28;89.25;98850.88;5010575;28;20677;-79
2022/06/07 08:55:20;;;;;;;1.87;0.83;;;;;;;20.70;92.21;98844.47;5015804;28;20201;-79
2022/06/07 08:57:55;;;;;;;2.90;0.80;;;;;;;20.49;88.44;98850.41;5010457;28;20218;-79
2022/06/07 09:00:28;;;;;;;2.03;0.70;;;;;;;20.28;84.73;98848.19;5010151;28;20198;-79
2022/06/07 09:03:21;;;;;;;1.83;0.60;;;;;;;20.45;86.05;98845.50;5016404;28;20202;-79
2022/06/07 09:05:58;;;;;;;1.13;0.80;;;;;;;20.63;84.08;98850.72;5014663;28;20202;-79
2022/06/07 09:08:34;;;;;;;1.53;0.70;;;;;;;20.16;84.70;98841.44;5010017;28;20221;-80
2022/06/07 09:13:55;;;;;;;1.50;0.90;;;;;;;20.13;84.81;98832.88;5010827;28;20666;-79
2022/06/07 09:16:25;;;;;;;2.77;0.70;;;;;;;20.51;84.88;98844.84;5009398;28;20202;-79
2022/06/07 09:18:53;;;;;;;2.00;0.80;;;;;;;20.96;84.71;98840.75;5009941;28;20700;-79
2022/06/07 09:21:28;;;;;;;3.57;0.97;;;;;;;20.87;81.77;98839.91;5010278;28;20222;-79
2022/06/07 09:23:58;;;;;;;0.90;0.70;;;;;;;20.67;87.97;98838.63;5010156;28;20225;-79
2022/06/07 09:26:30;;;;;;;2.90;0.80;;;;;;;20.44;88.50;98828.53;5008900;28;20267;-79
2022/06/07 09:29:13;;;;;;;1.70;0.87;;;;;;;20.32;86.22;98823.63;5011987;28;20214;-79
2022/06/07 09:31:45;;;;;;;2.40;0.73;;;;;;;20.41;93.10;98828.00;5011548;28;20242;-79
2022/06/07 09:34:21;;;;;;;3.30;0.80;;;;;;;20.19;93.03;98824.97;5010211;28;20222;-79
2022/06/07 09:36:57;;;;;;;1.43;0.80;;;;;;;20.02;93.53;98821.44;5016044;28;20205;-79
2022/06/07 09:39:33;;;;;;;1.83;0.80;;;;;;;20.45;93.87;98827.50;5007329;28;20633;-79
2022/06/07 09:42:06;;;;;;;0.70;0.70;;;;;;;20.85;90.80;98833.88;5007570;28;20202;-79
2022/06/07 09:44:38;;;;;;;2.37;0.87;;;;;;;20.53;89.96;98830.19;5012009;28;20198;-79
2022/06/07 09:47:13;;;;;;;1.97;0.70;;;;;;;21.47;89.84;98820.53;5005884;28;20194;-79
2022/06/07 09:49:45;;;;;;;1.20;0.80;;;;;;;21.50;89.80;98816.66;5007624;28;20281;-78
2022/06/07 09:52:21;;;;;;;3.10;0.80;;;;;;;20.62;87.72;98824.81;5009754;28;20198;-79
2022/06/07 09:54:53;;;;;;;2.10;1.30;;;;;;;21.08;90.37;98831.28;5009894;28;20221;-78
2022/06/07 09:57:33;;;;;;;1.77;1.00;;;;;;;20.96;90.33;98821.91;5014478;28;20226;-79
2022/06/07 10:00:20;;;;;;;1.97;0.80;;;;;;;20.89;91.65;98815.50;5011720;28;20197;-79
2022/06/07 10:03:17;;;;;;;1.70;0.80;;;;;;;21.37;90.66;98812.66;5012034;28;20200;-78
2022/06/07 10:05:53;;;;;;;3.83;0.83;;;;;;;21.69;91.06;98805.41;5012682;28;20239;-78
2022/06/07 10:08:40;;;;;;;1.37;0.70;;;;;;;21.81;85.57;98812.13;5019427;28;20194;-78
2022/06/07 10:11:20;;;;;;;1.27;0.70;;;;;;;21.28;85.09;98818.28;5012176;28;20239;-79
2022/06/07 10:14:03;;;;;;;2.20;0.70;;;;;;;21.82;84.27;98802.16;5013074;28;20277;-78
2022/06/07 10:16:40;;;;;;;1.27;0.60;;;;;;;22.45;79.55;98801.84;5013789;28;20195;-78
2022/06/07 10:19:24;;;;;;;0.95;0.70;;;;;;;22.19;78.48;98809.47;5012884;28;20218;-79
2022/06/07 10:22:09;;;;;;;2.70;0.60;;;;;;;21.66;81.98;98793.16;5014902;28;20210;-79
2022/06/07 10:24:47;;;;;;;1.23;0.80;;;;;;;21.75;81.55;98793.94;5012626;28;20210;-78
2022/06/07 10:27:20;;;;;;;2.55;0.90;;;;;;;22.04;81.62;98782.44;5011281;28;20199;-78
2022/06/07 10:30:28;;;;;;;2.22;0.90;;;;;;;22.16;78.27;98785.56;5012883;28;20190;-79
2022/06/07 10:33:07;;;;;;;0.87;0.70;;;;;;;22.28;82.16;98774.16;5033046;28;20210;-78
2022/06/07 10:35:48;;;;;;;0.98;0.60;;;;;;;22.89;75.52;98779.50;5009298;28;20232;-78
2022/06/07 10:38:35;;;;;;;0.70;0.67;;;;;;;21.96;78.38;98782.50;5012650;28;20225;-80
2022/06/07 10:41:12;;;;;;;1.17;0.60;;;;;;;22.01;79.07;98769.31;5011328;28;20203;-78
2022/06/07 10:43:54;;;;;;;1.83;0.60;;;;;;;22.48;73.90;98769.06;5015775;28;20202;-78
2022/06/07 10:46:22;;;;;;;2.57;0.63;;;;;;;22.95;72.45;98759.81;5015676;28;20281;-79
2022/06/07 10:49:03;;;;;;;1.90;0.60;;;;;;;22.71;71.45;98760.94;5012551;28;20199;-80
2022/06/07 10:54:29;;;;;;;1.52;0.80;;;;;;;23.42;70.32;98753.16;5012493;28;20318;-79
2022/06/07 10:57:06;;;;;;;1.05;0.60;;;;;;;22.35;74.93;98755.38;5011019;28;20201;-78
2022/06/07 10:59:39;;;;;;;1.52;0.70;;;;;;;22.61;71.92;98759.53;5017828;28;20227;-80
2022/06/07 11:02:22;;;;;;;1.52;0.60;;;;;;;22.75;69.86;98767.63;5011884;28;20312;-78
2022/06/07 11:10:39;;;;;;;2.42;0.80;;;;;;;23.69;68.63;98757.84;5009956;28;20278;-80
2022/06/07 11:13:17;;;;;;;2.17;0.57;;;;;;;23.18;64.28;98761.59;5014827;28;20203;-82
2022/06/07 11:15:59;;;;;;;1.13;0.50;;;;;;;22.40;68.27;98758.38;5009715;28;20277;-80
2022/06/07 11:18:28;;;;;;;0.80;0.60;;;;;;;22.23;72.12;98752.28;5013059;28;20219;-80
2022/06/07 11:21:23;;;;;;;2.45;0.70;;;;;;;22.36;71.94;98751.66;5011744;28;20657;-82
2022/06/07 11:24:07;;;;;;;1.10;0.60;;;;;;;22.72;69.13;98753.66;5089945;28;20200;-80
2022/06/07 11:27:10;;;;;;;1.00;0.70;;;;;;;22.90;69.89;98737.13;5087456;28;20199;-80
2022/06/07 11:29:38;;;;;;;1.77;0.80;;;;;;;22.72;67.43;98748.25;5010099;28;20205;-82
2022/06/07 11:32:40;;;;;;;0.90;0.57;;;;;;;22.64;70.26;98742.94;5052581;28;20224;-80
2022/06/07 11:35:45;;;;;;;1.53;0.70;;;;;;;22.44;74.36;98740.78;5072646;28;20261;-78
2022/06/07 11:38:21;;;;;;;1.10;0.60;;;;;;;22.38;73.22;98737.97;5072084;28;20222;-80
2022/06/07 11:41:36;;;;;;;1.25;0.63;;;;;;;22.48;69.05;98752.88;5064329;28;20211;-81
2022/06/07 11:43:51;;;;;;;0.97;0.57;;;;;;;22.32;67.53;98734.16;4989953;28;20199;-80
2022/06/07 11:46:25;;;;;;;1.00;0.87;;;;;;;22.16;70.72;98745.94;4993602;28;20290;-80
2022/06/07 11:49:33;;;;;;;0.60;0.60;;;;;;;21.99;73.05;98726.31;4987071;28;20215;-80
2022/06/07 11:52:19;;;;;;;2.05;0.70;;;;;;;21.67;74.69;98740.91;4987223;28;20250;-80
2022/06/07 11:54:53;;;;;;;1.83;0.77;;;;;;;22.05;75.80;98735.56;4987705;28;20198;-80
2022/06/07 11:57:58;;;;;;;0.57;0.57;;;;;;;22.08;75.85;98737.06;5008234;28;20228;-80
2022/06/07 12:00:44;;;;;;;1.10;0.70;;;;;;;22.19;76.79;98733.94;5011171;28;20305;-80
2022/06/07 12:03:33;;;;;;;2.10;0.70;;;;;;;22.10;75.10;98737.72;5003687;28;20198;-80
2022/06/07 12:06:23;;;;;;;2.00;0.60;;;;;;;21.93;73.05;98723.53;5010995;28;20244;-81
2022/06/07 12:09:02;;;;;;;1.50;0.67;;;;;;;21.99;70.68;98739.81;5011097;28;20201;-81
2022/06/07 12:11:34;;;;;;;1.10;0.60;;;;;;;22.31;75.58;98735.19;5007355;28;20199;-80
2022/06/07 12:14:42;;;;;;;1.23;0.80;;;;;;;21.92;79.32;98724.56;5011135;28;20198;-80
2022/06/07 12:17:25;;;;;;;1.20;0.70;;;;;;;22.07;79.76;98748.88;5010894;28;20278;-79